Portada
METAR-TAF:

METAR-TAF

Aeropuertos :

Cazaux, Francia

latitud: 44-32N, longitud: 001-08W, altitud: 25 m

Observación

El informe se hizo hace 32 minutos, a las 04:00 UTC
Viento 2 kt con dirección variable
Temperatura 14°C
Humedad 88%
Presión 1014 hPa
Visibilidad 10 km o más
sin nubes por debajo de 1500 m y sin presencia de cumulonimbus.

METAR: LFBC 210400Z AUTO VRB02KT CAVOK 14/12 Q1014 NOSIG

Hora: 06:32 (04:32 UTC)

Pronóstico

El informe se hizo hace 2 horas y 32 minutos, a las 02:00 UTC
Pronóstico válido del 21 a las 03 UTC al 22 a las 03 UTC
Viento 4 kt del norte-noroeste
Visibilidad 10 km o más
sin nubes por debajo de 1500 m y sin presencia de cumulonimbus.

TAF: LFBC 210200Z 2103/2203 33004KT CAVOK

Observaciones y pronósticos meteorológicos de más de 4000 aeropuertos (mensajes METAR y TAF).

Los puntos amarillos y rojos representan las estaciones disponibles.

Ponga el ratón en el punto deseado para ver el nombre de la estación.

Haga clic para ver las observaciones y los pronósticos meteorológicos.

Para cambiar el mapa : haga clic en los botones verdes con una cruz de color negro para hacer un zoom, en el botón verde con un guión para alejar o en las flechas verdes para mapas adyacentes.


METAR-TAF: